createdAt,value
2019-05-07T00:01:02.725Z,10.63
2019-05-07T00:03:32.872Z,9.87
2019-05-07T00:06:02.806Z,10.03
2019-05-07T00:08:32.264Z,11.97
2019-05-07T00:11:02.376Z,12.47
2019-05-07T00:13:33.342Z,10.07
2019-05-07T00:16:02.607Z,11.60
2019-05-07T00:18:32.197Z,11.17
2019-05-07T00:21:03.383Z,11.17
2019-05-07T00:23:32.555Z,14.50
2019-05-07T00:26:03.256Z,12.37
2019-05-07T00:28:32.558Z,11.40
2019-05-07T00:31:02.828Z,15.70
2019-05-07T00:33:32.911Z,14.03
2019-05-07T00:36:13.236Z,13.27
2019-05-07T00:38:44.726Z,14.07
2019-05-07T00:41:19.734Z,13.87
2019-05-07T00:43:52.490Z,14.97
2019-05-07T00:46:24.406Z,15.60
2019-05-07T00:48:53.292Z,15.63
2019-05-07T00:51:30.570Z,19.87
2019-05-07T00:54:02.697Z,15.17
2019-05-07T00:56:33.021Z,13.97
2019-05-07T00:59:02.214Z,17.30
2019-05-07T01:01:32.332Z,15.30
2019-05-07T01:04:02.661Z,16.97
2019-05-07T01:06:33.085Z,14.97
2019-05-07T01:09:03.474Z,14.47
2019-05-07T01:11:33.472Z,14.27
2019-05-07T01:14:02.919Z,17.20
2019-05-07T01:16:32.949Z,16.97
2019-05-07T01:19:02.218Z,15.23
2019-05-07T01:21:32.431Z,15.40
2019-05-07T01:24:03.225Z,13.57
2019-05-07T01:26:33.157Z,13.67
2019-05-07T01:29:03.202Z,12.80
2019-05-07T01:31:43.109Z,15.63
2019-05-07T01:34:23.646Z,12.10
2019-05-07T01:36:52.479Z,13.53
2019-05-07T01:39:23.192Z,13.33
2019-05-07T01:41:52.513Z,17.47
2019-05-07T01:44:22.146Z,12.77
2019-05-07T01:46:52.954Z,17.07
2019-05-07T01:49:23.843Z,13.37
2019-05-07T01:51:52.969Z,12.43
2019-05-07T01:54:23.755Z,12.27
2019-05-07T01:56:52.371Z,15.10
2019-05-07T01:59:22.512Z,13.07
2019-05-07T02:01:52.996Z,13.43
2019-05-07T02:04:33.688Z,17.07
2019-05-07T02:07:22.580Z,13.33
2019-05-07T02:09:56.650Z,13.47
2019-05-07T02:12:31.782Z,12.53
2019-05-07T02:15:02.600Z,14.40
2019-05-07T02:17:32.239Z,13.37
2019-05-07T02:20:02.662Z,14.10
2019-05-07T02:22:32.088Z,14.60
2019-05-07T02:25:03.071Z,14.20
2019-05-07T02:27:32.846Z,13.87
2019-05-07T02:30:04.142Z,15.83
2019-05-07T02:32:33.470Z,13.00
2019-05-07T02:35:03.965Z,13.17
2019-05-07T02:37:48.409Z,14.20
2019-05-07T02:40:22.953Z,13.17
2019-05-07T02:42:54.065Z,13.70
2019-05-07T02:45:39.799Z,14.03
2019-05-07T02:48:08.935Z,13.00
2019-05-07T02:51:04.186Z,12.70
2019-05-07T02:53:45.500Z,15.83
2019-05-07T02:56:14.218Z,13.77
2019-05-07T02:58:43.558Z,13.43
2019-05-07T03:01:13.815Z,13.40
2019-05-07T03:03:44.945Z,14.60
2019-05-07T03:06:13.904Z,12.17
2019-05-07T03:08:43.921Z,11.73
2019-05-07T03:11:14.271Z,11.70
2019-05-07T03:13:43.600Z,14.57
2019-05-07T03:16:13.240Z,11.77
2019-05-07T03:18:43.895Z,13.27
2019-05-07T03:21:15.722Z,14.33
2019-05-07T03:24:03.508Z,13.73
2019-05-07T03:26:34.637Z,12.63
2019-05-07T03:29:06.930Z,13.67
2019-05-07T03:31:56.259Z,13.37
2019-05-07T03:34:47.415Z,13.40
2019-05-07T03:37:19.743Z,13.10
2019-05-07T03:39:48.513Z,13.70
2019-05-07T03:42:17.304Z,15.07
2019-05-07T03:44:53.757Z,16.40
2019-05-07T03:47:29.112Z,14.33
2019-05-07T03:49:57.935Z,16.20
2019-05-07T03:52:26.698Z,14.63
2019-05-07T03:54:55.438Z,15.27
2019-05-07T03:57:24.207Z,16.47
2019-05-07T03:59:53.487Z,15.43
2019-05-07T04:02:23.809Z,13.83
2019-05-07T04:04:53.153Z,15.03
2019-05-07T04:07:23.286Z,14.40
2019-05-07T04:09:53.509Z,13.47
2019-05-07T04:12:23.976Z,15.17
2019-05-07T04:14:53.586Z,13.17
2019-05-07T04:17:26.717Z,16.37
2019-05-07T04:19:53.390Z,13.67
2019-05-07T04:22:25.218Z,15.90
2019-05-07T04:25:13.160Z,15.53
2019-05-07T04:27:48.481Z,13.87
2019-05-07T04:30:17.385Z,14.77
2019-05-07T04:32:52.775Z,14.77
2019-05-07T04:35:33.161Z,14.83
2019-05-07T04:38:03.398Z,15.47
2019-05-07T04:40:33.648Z,15.00
2019-05-07T04:43:04.190Z,15.60
2019-05-07T04:45:33.805Z,16.73
2019-05-07T04:48:03.299Z,16.53
2019-05-07T04:50:42.558Z,17.70
2019-05-07T04:53:04.766Z,15.27
2019-05-07T04:55:33.775Z,18.27
2019-05-07T04:58:04.542Z,19.43
2019-05-07T05:00:33.772Z,18.90
2019-05-07T05:03:23.718Z,18.77
2019-05-07T05:05:53.190Z,20.13
2019-05-07T05:08:23.629Z,19.60
2019-05-07T05:10:53.829Z,20.60
2019-05-07T05:13:23.849Z,19.03
2019-05-07T05:15:53.063Z,20.03
2019-05-07T05:18:22.176Z,19.57
2019-05-07T05:21:19.400Z,17.77
2019-05-07T05:24:01.878Z,18.40
2019-05-07T05:26:32.653Z,19.57
2019-05-07T05:29:02.402Z,19.23
2019-05-07T05:31:33.048Z,22.20
2019-05-07T05:34:02.292Z,22.30
2019-05-07T05:36:32.957Z,20.20
2019-05-07T05:39:02.463Z,21.03
2019-05-07T05:41:34.080Z,20.30
2019-05-07T05:44:07.304Z,23.57
2019-05-07T05:46:36.053Z,23.60
2019-05-07T05:49:04.943Z,25.40
2019-05-07T05:51:52.501Z,23.47
2019-05-07T05:54:34.803Z,24.37
2019-05-07T05:57:23.007Z,23.83
2019-05-07T06:00:06.107Z,25.37
2019-05-07T06:02:57.144Z,25.67
2019-05-07T06:05:47.853Z,27.70
2019-05-07T06:08:34.471Z,26.13
2019-05-07T06:11:08.912Z,26.00
2019-05-07T06:13:59.767Z,24.87
2019-05-07T06:16:36.600Z,26.67
2019-05-07T06:19:18.607Z,27.60
2019-05-07T06:24:58.466Z,28.83
2019-05-07T06:27:27.209Z,26.00
2019-05-07T06:29:56.375Z,28.13
2019-05-07T06:32:25.259Z,29.77
2019-05-07T06:34:54.172Z,31.23
2019-05-07T06:37:23.005Z,27.90
2019-05-07T06:40:12.122Z,33.53
2019-05-07T06:42:52.355Z,27.30
2019-05-07T06:45:24.735Z,25.87
2019-05-07T06:47:53.476Z,29.03
2019-05-07T06:50:22.270Z,28.07
2019-05-07T06:52:51.910Z,26.23
2019-05-07T06:55:22.798Z,30.60
2019-05-07T06:57:53.065Z,27.40
2019-05-07T07:00:42.474Z,28.30
2019-05-07T07:03:26.866Z,28.10
2019-05-07T07:06:19.046Z,29.50
2019-05-07T07:08:54.791Z,26.20
2019-05-07T07:11:32.370Z,33.10
2019-05-07T07:14:02.612Z,30.73
2019-05-07T07:16:32.609Z,29.57
2019-05-07T07:19:03.345Z,30.73
2019-05-07T07:21:32.791Z,29.57
2019-05-07T07:24:03.019Z,28.03
2019-05-07T07:26:33.538Z,29.33
2019-05-07T07:29:02.280Z,29.33
2019-05-07T07:31:44.855Z,27.07
2019-05-07T07:34:13.603Z,28.90
2019-05-07T07:37:03.089Z,29.73
2019-05-07T07:39:22.057Z,27.97
2019-05-07T07:41:53.598Z,28.53
2019-05-07T07:44:22.467Z,29.47
2019-05-07T07:46:53.123Z,30.57
2019-05-07T07:49:22.201Z,29.70
2019-05-07T07:51:52.547Z,30.27
2019-05-07T07:54:22.718Z,25.60
2019-05-07T07:57:09.446Z,25.00
2019-05-07T07:59:56.123Z,23.17
2019-05-07T08:02:32.706Z,23.07
2019-05-07T08:05:02.118Z,21.63
2019-05-07T08:07:32.992Z,20.50
2019-05-07T08:10:02.569Z,23.47
2019-05-07T08:12:32.513Z,23.53
2019-05-07T08:15:14.544Z,23.77
2019-05-07T08:17:32.723Z,22.53
2019-05-07T08:20:02.637Z,25.20
2019-05-07T08:22:33.007Z,22.50
2019-05-07T08:25:03.619Z,21.33
2019-05-07T08:27:32.587Z,24.57
2019-05-07T08:30:02.946Z,19.83
2019-05-07T08:32:38.998Z,20.40
2019-05-07T08:35:15.318Z,20.83
2019-05-07T08:37:44.076Z,19.53
2019-05-07T08:40:13.469Z,21.93
2019-05-07T08:42:42.215Z,21.03
2019-05-07T08:45:29.440Z,19.33
2019-05-07T08:48:02.084Z,20.53
2019-05-07T08:50:32.661Z,21.57
2019-05-07T08:53:02.808Z,21.97
2019-05-07T08:55:32.225Z,21.80
2019-05-07T08:58:02.181Z,21.53
2019-05-07T09:00:32.611Z,21.40
2019-05-07T09:03:01.792Z,22.23
2019-05-07T09:05:32.339Z,24.00
2019-05-07T09:08:02.271Z,21.80
2019-05-07T09:10:32.495Z,20.13
2019-05-07T09:13:02.782Z,24.23
2019-05-07T09:15:32.139Z,20.27
2019-05-07T09:18:02.073Z,18.27
2019-05-07T09:20:32.193Z,19.87
2019-05-07T09:23:02.091Z,20.23
2019-05-07T09:25:34.276Z,21.47
2019-05-07T09:28:03.191Z,21.27
2019-05-07T09:31:03.171Z,20.77
2019-05-07T09:33:45.271Z,24.00
2019-05-07T09:36:22.615Z,19.73
2019-05-07T09:38:56.719Z,21.00
2019-05-07T09:41:27.446Z,20.57
2019-05-07T09:43:59.375Z,20.70
2019-05-07T09:46:28.250Z,17.73
2019-05-07T09:48:57.095Z,20.57
2019-05-07T09:51:25.886Z,17.10
2019-05-07T09:53:54.662Z,19.07
2019-05-07T09:56:23.447Z,19.77
2019-05-07T09:58:53.872Z,19.80
2019-05-07T10:01:23.671Z,20.30
2019-05-07T10:03:53.063Z,24.00
2019-05-07T10:06:22.915Z,19.17
2019-05-07T10:08:52.442Z,20.03
2019-05-07T10:11:37.006Z,20.93
2019-05-07T10:14:09.441Z,19.37
2019-05-07T10:17:02.613Z,16.47
2019-05-07T10:19:32.525Z,16.10
2019-05-07T10:22:02.304Z,15.83
2019-05-07T10:24:31.654Z,17.27
2019-05-07T10:27:02.217Z,26.60
2019-05-07T10:29:32.270Z,18.33
2019-05-07T10:32:02.404Z,16.30
2019-05-07T10:34:31.198Z,17.50
2019-05-07T10:37:00.076Z,15.27
2019-05-07T10:39:28.907Z,17.07
2019-05-07T10:42:01.844Z,18.83
2019-05-07T10:44:36.459Z,18.47
2019-05-07T10:47:42.560Z,15.03
2019-05-07T10:50:17.866Z,16.23
2019-05-07T10:52:46.829Z,16.63
2019-05-07T10:55:16.258Z,19.03
2019-05-07T10:57:45.017Z,16.97
2019-05-07T11:00:17.017Z,17.00
2019-05-07T11:02:45.880Z,19.57
2019-05-07T11:05:15.741Z,16.53
2019-05-07T11:07:44.617Z,14.60
2019-05-07T11:10:14.276Z,16.27
2019-05-07T11:12:43.220Z,17.80
2019-05-07T11:15:12.779Z,15.93
2019-05-07T11:17:53.574Z,15.48
2019-05-07T11:20:22.651Z,14.55
2019-05-07T11:23:10.804Z,12.83
2019-05-07T11:25:39.650Z,16.27
2019-05-07T11:28:09.319Z,16.90
2019-05-07T11:30:38.199Z,18.90
2019-05-07T11:33:07.220Z,15.80
2019-05-07T11:35:36.191Z,17.33
2019-05-07T11:38:17.655Z,16.53
2019-05-07T11:40:36.064Z,16.03
2019-05-07T11:43:14.140Z,15.53
2019-05-07T11:45:48.271Z,16.80
2019-05-07T11:48:18.296Z,18.57
2019-05-07T11:51:04.329Z,20.10
2019-05-07T11:53:32.831Z,15.50
2019-05-07T11:56:02.591Z,18.50
2019-05-07T11:58:32.557Z,17.35
2019-05-07T12:01:13.847Z,18.70
2019-05-07T12:03:42.950Z,18.67
2019-05-07T12:06:12.461Z,18.32
2019-05-07T12:08:48.268Z,18.73
2019-05-07T12:11:12.054Z,18.45
2019-05-07T12:13:42.755Z,17.92
2019-05-07T12:16:14.106Z,15.65
2019-05-07T12:18:43.109Z,15.23
2019-05-07T12:21:20.208Z,16.35
2019-05-07T12:23:42.880Z,20.72
2019-05-07T12:26:12.543Z,18.50
2019-05-07T12:28:42.019Z,17.42
2019-05-07T12:31:22.443Z,18.02
2019-05-07T12:34:16.421Z,15.00
2019-05-07T12:36:45.340Z,20.45
2019-05-07T12:39:14.268Z,16.27
2019-05-07T12:41:43.172Z,15.03
2019-05-07T12:44:12.988Z,14.10
2019-05-07T12:46:42.511Z,13.90
2019-05-07T12:49:12.124Z,12.40
2019-05-07T12:51:55.766Z,11.77
2019-05-07T12:54:36.675Z,11.10
2019-05-07T12:57:05.729Z,11.70
2019-05-07T12:59:53.792Z,11.10
2019-05-07T13:02:41.063Z,10.30
2019-05-07T13:05:08.659Z,14.37
2019-05-07T13:08:02.612Z,13.00
2019-05-07T13:10:32.466Z,12.60
2019-05-07T13:13:02.203Z,13.77
2019-05-07T13:15:32.644Z,13.23
2019-05-07T13:18:02.786Z,13.60
2019-05-07T13:20:32.083Z,13.63
2019-05-07T13:23:00.844Z,15.93
2019-05-07T13:25:29.721Z,14.93
2019-05-07T13:27:58.971Z,14.93
2019-05-07T13:30:27.962Z,16.80
2019-05-07T13:33:02.003Z,16.57
2019-05-07T13:35:32.052Z,15.23
2019-05-07T13:38:23.326Z,15.50
2019-05-07T13:40:55.374Z,15.67
2019-05-07T13:43:28.982Z,16.17
2019-05-07T13:46:02.604Z,16.57
2019-05-07T13:48:31.977Z,13.40
2019-05-07T13:51:01.783Z,17.07
2019-05-07T13:53:32.276Z,17.47
2019-05-07T13:56:02.341Z,17.50
2019-05-07T13:58:32.919Z,15.77
2019-05-07T14:01:12.200Z,20.15
2019-05-07T14:03:41.142Z,16.75
2019-05-07T14:06:12.644Z,16.00
2019-05-07T14:08:42.728Z,19.10
2019-05-07T14:11:12.251Z,15.83
2019-05-07T14:13:43.422Z,16.00
2019-05-07T14:16:13.331Z,13.32
2019-05-07T14:18:42.224Z,15.10
2019-05-07T14:21:13.002Z,13.22
2019-05-07T14:23:42.820Z,15.15
2019-05-07T14:26:12.159Z,16.62
2019-05-07T14:28:42.316Z,15.60
2019-05-07T14:31:12.305Z,13.25
2019-05-07T14:33:54.143Z,15.18
2019-05-07T14:36:28.231Z,14.63
2019-05-07T14:38:57.093Z,13.35
2019-05-07T14:41:25.950Z,14.75
2019-05-07T14:44:13.071Z,15.25
2019-05-07T14:46:50.326Z,14.85
2019-05-07T14:49:12.873Z,16.80
2019-05-07T14:51:41.751Z,15.32
2019-05-07T14:54:12.327Z,14.80
2019-05-07T14:56:42.875Z,15.70
2019-05-07T14:59:12.827Z,16.42
2019-05-07T15:01:42.948Z,13.83
2019-05-07T15:04:12.905Z,14.65
2019-05-07T15:06:42.059Z,17.32
2019-05-07T15:09:12.117Z,15.43
2019-05-07T15:11:42.506Z,15.85
2019-05-07T15:14:12.152Z,16.35
2019-05-07T15:16:42.658Z,16.75
2019-05-07T15:19:12.486Z,15.15
2019-05-07T15:21:42.587Z,16.57
2019-05-07T15:24:13.822Z,16.00
2019-05-07T15:26:43.459Z,14.28
2019-05-07T15:29:14.208Z,13.58
2019-05-07T15:32:14.348Z,13.08
2019-05-07T15:34:43.152Z,14.00
2019-05-07T15:37:12.345Z,16.27
2019-05-07T15:39:42.143Z,14.33
2019-05-07T15:42:11.223Z,14.28
2019-05-07T15:44:40.185Z,13.05
2019-05-07T15:47:14.026Z,13.15
2019-05-07T15:49:42.769Z,12.90
2019-05-07T15:52:17.542Z,14.25
2019-05-07T15:54:46.298Z,16.60
2019-05-07T15:57:19.038Z,13.30
2019-05-07T15:59:49.512Z,17.77
2019-05-07T16:02:27.015Z,16.95
2019-05-07T16:04:57.924Z,16.37
2019-05-07T16:07:26.940Z,13.70
2019-05-07T16:09:56.103Z,16.95
2019-05-07T16:12:26.567Z,16.10
2019-05-07T16:14:55.651Z,18.00
2019-05-07T16:17:37.529Z,14.98
2019-05-07T16:20:06.859Z,13.35
2019-05-07T16:22:39.338Z,18.02
2019-05-07T16:25:08.341Z,17.17
2019-05-07T16:27:42.346Z,14.07
2019-05-07T16:30:14.306Z,15.18
2019-05-07T16:32:43.063Z,17.15
2019-05-07T16:35:12.452Z,15.98
2019-05-07T16:37:42.839Z,14.98
2019-05-07T16:40:12.890Z,13.72
2019-05-07T16:42:42.871Z,15.23
2019-05-07T16:45:13.825Z,15.28
2019-05-07T16:47:42.669Z,15.30
2019-05-07T16:50:12.942Z,15.30
2019-05-07T16:52:42.380Z,16.40
2019-05-07T16:55:12.250Z,14.98
2019-05-07T16:58:15.475Z,14.73
2019-05-07T17:00:47.368Z,15.93
2019-05-07T17:03:20.674Z,16.05
2019-05-07T17:05:49.654Z,18.27
2019-05-07T17:08:32.271Z,15.65
2019-05-07T17:11:03.066Z,14.65
2019-05-07T17:13:32.064Z,15.93
2019-05-07T17:16:03.405Z,16.73
2019-05-07T17:18:32.740Z,15.85
2019-05-07T17:21:02.181Z,16.75
2019-05-07T17:23:43.825Z,17.02
2019-05-07T17:26:04.782Z,14.15
2019-05-07T17:28:33.063Z,14.43
2019-05-07T17:31:03.058Z,16.70
2019-05-07T17:33:32.471Z,14.35
2019-05-07T17:36:02.515Z,16.55
2019-05-07T17:38:32.225Z,15.72
2019-05-07T17:41:10.935Z,14.73
2019-05-07T17:43:32.606Z,16.15
2019-05-07T17:46:02.861Z,15.93
2019-05-07T17:48:32.772Z,15.70
2019-05-07T17:51:24.395Z,15.58
2019-05-07T17:53:59.407Z,17.57
2019-05-07T17:56:25.724Z,16.07
2019-05-07T17:58:54.711Z,19.70
2019-05-07T18:01:45.663Z,16.15
2019-05-07T18:04:14.757Z,17.57
2019-05-07T18:06:43.730Z,16.32
2019-05-07T18:09:12.687Z,15.65
2019-05-07T18:11:42.899Z,16.00
2019-05-07T18:14:11.890Z,15.55
2019-05-07T18:17:06.651Z,17.52
2019-05-07T18:19:35.440Z,16.60
2019-05-07T18:22:04.403Z,17.45
2019-05-07T18:24:33.294Z,16.50
2019-05-07T18:27:03.731Z,17.40
2019-05-07T18:29:32.880Z,17.75
2019-05-07T18:32:03.265Z,20.73
2019-05-07T18:34:32.330Z,18.53
2019-05-07T18:37:02.138Z,18.23
2019-05-07T18:39:32.453Z,16.80
2019-05-07T18:42:02.775Z,16.97
2019-05-07T18:44:32.520Z,18.90
2019-05-07T18:47:02.318Z,17.07
2019-05-07T18:49:31.831Z,18.90
2019-05-07T18:52:02.722Z,16.30
2019-05-07T18:54:31.737Z,20.53
2019-05-07T18:57:02.310Z,19.67
2019-05-07T18:59:33.205Z,16.40
2019-05-07T19:02:02.387Z,20.20
2019-05-07T19:04:32.789Z,19.97
2019-05-07T19:07:02.579Z,17.93
2019-05-07T19:09:32.173Z,22.03
2019-05-07T19:12:01.400Z,19.83
2019-05-07T19:14:33.142Z,21.27
2019-05-07T19:17:03.176Z,19.77
2019-05-07T19:19:32.787Z,19.37
2019-05-07T19:22:02.217Z,18.57
2019-05-07T19:24:44.183Z,18.80
2019-05-07T19:27:02.276Z,18.90
2019-05-07T19:29:32.540Z,19.87
2019-05-07T19:32:03.176Z,20.20
2019-05-07T19:34:32.528Z,20.27
2019-05-07T19:37:02.584Z,20.13
2019-05-07T19:39:32.446Z,20.53
2019-05-07T19:42:02.595Z,20.57
2019-05-07T19:44:31.673Z,23.10
2019-05-07T19:47:02.031Z,19.70
2019-05-07T19:49:32.472Z,20.33
2019-05-07T19:52:01.812Z,21.57
2019-05-07T19:54:32.393Z,23.40
2019-05-07T19:57:02.669Z,21.17
2019-05-07T19:59:32.732Z,21.07
2019-05-07T20:02:03.264Z,21.07
2019-05-07T20:04:32.229Z,21.47
2019-05-07T20:07:02.850Z,22.77
2019-05-07T20:09:34.451Z,23.97
2019-05-07T20:12:03.790Z,23.33
2019-05-07T20:14:33.236Z,21.53
2019-05-07T20:17:02.159Z,21.53
2019-05-07T20:19:32.316Z,23.30
2019-05-07T20:22:02.139Z,21.70
2019-05-07T20:24:32.578Z,23.23
2019-05-07T20:27:03.056Z,23.10
2019-05-07T20:29:32.429Z,22.77
2019-05-07T20:32:01.292Z,23.20
2019-05-07T20:34:30.233Z,25.77
2019-05-07T20:36:59.203Z,24.67
2019-05-07T20:39:27.944Z,24.93
2019-05-07T20:41:56.867Z,24.63
2019-05-07T20:44:25.857Z,22.03
2019-05-07T20:46:54.602Z,22.80
2019-05-07T20:49:23.416Z,24.93
2019-05-07T20:51:52.614Z,25.07
2019-05-07T20:54:29.676Z,25.37
2019-05-07T20:57:05.035Z,24.97
2019-05-07T20:59:33.796Z,24.53
2019-05-07T21:02:02.540Z,23.90
2019-05-07T21:04:33.054Z,21.67
2019-05-07T21:07:02.190Z,23.70
2019-05-07T21:09:32.871Z,21.87
2019-05-07T21:12:01.737Z,24.47
2019-05-07T21:14:32.438Z,22.33
2019-05-07T21:17:01.247Z,22.23
2019-05-07T21:19:30.230Z,20.17
2019-05-07T21:21:59.106Z,20.43
2019-05-07T21:24:27.951Z,20.60
2019-05-07T21:26:57.167Z,22.77
2019-05-07T21:29:26.116Z,21.37
2019-05-07T21:31:54.994Z,21.07
2019-05-07T21:34:23.894Z,22.83
2019-05-07T21:36:52.797Z,18.83
2019-05-07T21:39:22.343Z,19.07
2019-05-07T21:41:51.964Z,21.93
2019-05-07T21:44:22.675Z,20.50
2019-05-07T21:46:51.886Z,21.23
2019-05-07T21:49:22.878Z,20.77
2019-05-07T21:51:52.247Z,19.80
2019-05-07T21:54:37.962Z,20.03
2019-05-07T21:57:22.562Z,19.83
2019-05-07T22:00:12.487Z,20.53
2019-05-07T22:02:41.892Z,17.97
2019-05-07T22:05:11.837Z,19.37
2019-05-07T22:07:40.912Z,18.97
2019-05-07T22:10:09.947Z,21.00
2019-05-07T22:12:38.819Z,18.70
2019-05-07T22:15:08.131Z,18.50
2019-05-07T22:17:37.046Z,19.37
2019-05-07T22:20:06.103Z,20.60
2019-05-07T22:22:35.021Z,18.30
2019-05-07T22:25:05.306Z,18.97
2019-05-07T22:27:34.436Z,19.03
2019-05-07T22:30:04.464Z,17.37
2019-05-07T22:32:44.024Z,21.50
2019-05-07T22:35:22.710Z,18.80
2019-05-07T22:37:51.974Z,20.13
2019-05-07T22:40:22.637Z,17.90
2019-05-07T22:42:51.599Z,19.07
2019-05-07T22:45:22.539Z,19.83
2019-05-07T22:47:52.604Z,19.70
2019-05-07T22:50:22.578Z,18.00
2019-05-07T22:52:52.560Z,19.87
2019-05-07T22:55:21.995Z,17.80
2019-05-07T22:58:02.180Z,21.00
2019-05-07T23:00:37.223Z,23.50
2019-05-07T23:03:06.045Z,20.33
2019-05-07T23:05:34.918Z,22.10
2019-05-07T23:08:04.063Z,18.43
2019-05-07T23:10:33.392Z,20.23
2019-05-07T23:13:02.458Z,20.77
2019-05-07T23:15:32.190Z,19.53
2019-05-07T23:18:04.145Z,17.90
2019-05-07T23:20:32.067Z,21.07
2019-05-07T23:23:01.008Z,25.20
2019-05-07T23:25:32.071Z,21.70
2019-05-07T23:28:04.875Z,19.40
2019-05-07T23:30:33.105Z,19.37
2019-05-07T23:33:02.415Z,21.57
2019-05-07T23:35:32.869Z,20.60
2019-05-07T23:38:02.500Z,19.93
2019-05-07T23:40:49.367Z,18.90
2019-05-07T23:43:18.345Z,20.07
2019-05-07T23:45:47.130Z,21.10
2019-05-07T23:48:15.933Z,20.17
2019-05-07T23:50:44.771Z,20.43
2019-05-07T23:53:13.603Z,21.80
2019-05-07T23:55:42.556Z,22.33
2019-05-07T23:58:13.825Z,21.87
